createdAt,value
2023-05-10T00:00:04.329Z,1061.00
2023-05-10T00:01:04.369Z,1058.00
2023-05-10T00:02:04.467Z,1067.00
2023-05-10T00:03:04.468Z,1065.00
2023-05-10T00:04:04.415Z,1052.00
2023-05-10T00:05:04.349Z,1061.00
2023-05-10T00:06:04.369Z,1058.00
2023-05-10T00:07:04.346Z,1061.00
2023-05-10T00:08:04.373Z,1058.00
2023-05-10T00:09:04.347Z,1067.00
2023-05-10T00:10:04.307Z,1037.00
2023-05-10T00:11:04.290Z,1066.00
2023-05-10T00:12:04.347Z,1053.00
2023-05-10T00:13:04.345Z,1051.00
2023-05-10T00:14:04.354Z,1058.00
2023-05-10T00:15:04.292Z,1055.00
2023-05-10T00:16:04.415Z,1066.00
2023-05-10T00:17:04.372Z,1064.00
2023-05-10T00:18:04.495Z,1053.00
2023-05-10T00:19:04.405Z,1071.00
2023-05-10T00:20:04.389Z,1070.00
2023-05-10T00:21:04.396Z,1061.00
2023-05-10T00:22:04.421Z,1069.00
2023-05-10T00:23:04.416Z,1061.00
2023-05-10T00:24:04.440Z,1064.00
2023-05-10T00:25:04.416Z,1062.00
2023-05-10T00:26:04.429Z,1073.00
2023-05-10T00:27:04.430Z,1059.00
2023-05-10T00:28:04.439Z,1065.00
2023-05-10T00:29:04.453Z,1068.00
2023-05-10T00:30:04.475Z,1056.00
2023-05-10T00:31:04.492Z,1064.00
2023-05-10T00:32:04.583Z,1059.00
2023-05-10T00:33:04.524Z,1056.00
2023-05-10T00:34:04.538Z,1069.00
2023-05-10T00:35:04.587Z,1060.00
2023-05-10T00:36:04.536Z,1075.00
2023-05-10T00:37:04.510Z,1062.00
2023-05-10T00:38:04.604Z,1056.00
2023-05-10T00:39:04.627Z,1062.00
2023-05-10T00:40:04.595Z,1059.00
2023-05-10T00:41:04.611Z,1064.00
2023-05-10T00:42:04.616Z,1061.00
2023-05-10T00:43:04.630Z,1055.00
2023-05-10T00:44:04.613Z,1057.00
2023-05-10T00:45:04.660Z,1058.00
2023-05-10T00:46:04.623Z,1067.00
2023-05-10T00:47:04.703Z,1058.00
2023-05-10T00:48:04.688Z,1069.00
2023-05-10T00:49:04.670Z,1065.00
2023-05-10T00:50:04.714Z,1063.00
2023-05-10T00:51:04.684Z,1064.00
2023-05-10T00:52:04.706Z,1066.00
2023-05-10T00:53:04.712Z,1063.00
2023-05-10T00:54:04.701Z,1069.00
2023-05-10T00:55:04.727Z,1075.00
2023-05-10T00:56:04.747Z,1061.00
2023-05-10T00:57:04.777Z,1077.00
2023-05-10T00:58:04.745Z,1070.00
2023-05-10T00:59:04.760Z,1074.00
2023-05-10T01:00:04.765Z,1073.00
2023-05-10T01:01:04.799Z,1076.00
2023-05-10T01:02:04.858Z,1071.00
2023-05-10T01:03:04.922Z,1065.00
2023-05-10T01:04:04.863Z,1079.00
2023-05-10T01:05:04.929Z,1067.00
2023-05-10T01:06:04.887Z,1059.00
2023-05-10T01:07:04.984Z,1071.00
2023-05-10T01:08:04.897Z,1064.00
2023-05-10T01:09:04.936Z,1055.00
2023-05-10T01:10:04.924Z,1066.00
2023-05-10T01:11:04.926Z,1077.00
2023-05-10T01:12:05.038Z,1070.00
2023-05-10T01:13:05.005Z,1081.00
2023-05-10T01:14:04.988Z,1064.00
2023-05-10T01:15:05.015Z,1072.00
2023-05-10T01:16:05.031Z,1077.00
2023-05-10T01:17:05.015Z,1071.00
2023-05-10T01:18:05.047Z,1062.00
2023-05-10T01:19:05.073Z,1064.00
2023-05-10T01:20:05.103Z,1084.00
2023-05-10T01:21:05.091Z,1079.00
2023-05-10T01:22:05.102Z,1085.00
2023-05-10T01:23:05.101Z,1076.00
2023-05-10T01:24:05.160Z,1080.00
2023-05-10T01:25:05.154Z,1073.00
2023-05-10T01:26:05.163Z,1079.00
2023-05-10T01:27:05.204Z,1083.00
2023-05-10T01:28:05.241Z,1083.00
2023-05-10T01:29:05.236Z,1087.00
2023-05-10T01:30:14.253Z,1078.00
2023-05-10T01:31:06.269Z,1079.00
2023-05-10T01:32:05.226Z,1082.00
2023-05-10T01:33:05.246Z,1083.00
2023-05-10T01:34:05.205Z,1091.00
2023-05-10T01:35:05.153Z,1091.00
2023-05-10T01:36:05.164Z,1094.00
2023-05-10T01:37:05.167Z,1086.00
2023-05-10T01:38:05.207Z,1086.00
2023-05-10T01:39:05.141Z,1096.00
2023-05-10T01:40:05.173Z,1096.00
2023-05-10T01:41:05.130Z,1089.00
2023-05-10T01:42:05.154Z,1086.00
2023-05-10T01:43:05.164Z,1097.00
2023-05-10T01:44:05.109Z,1104.00
2023-05-10T01:45:05.096Z,1105.00
2023-05-10T01:46:05.080Z,1096.00
2023-05-10T01:47:05.118Z,1096.00
2023-05-10T01:48:05.150Z,1086.00
2023-05-10T01:49:05.109Z,1099.00
2023-05-10T01:50:05.076Z,1091.00
2023-05-10T01:51:05.090Z,1092.00
2023-05-10T01:52:05.060Z,1076.00
2023-05-10T01:53:05.040Z,1086.00
2023-05-10T01:54:05.036Z,1086.00
2023-05-10T01:55:05.047Z,1086.00
2023-05-10T01:56:05.018Z,1093.00
2023-05-10T01:57:05.033Z,1081.00
2023-05-10T01:58:05.034Z,1084.00
2023-05-10T01:59:05.006Z,1076.00
2023-05-10T02:00:04.978Z,1089.00
2023-05-10T02:01:05.040Z,1089.00
2023-05-10T02:02:05.065Z,1086.00
2023-05-10T02:03:05.123Z,1098.00
2023-05-10T02:04:05.120Z,1084.00
2023-05-10T02:05:05.042Z,1093.00
2023-05-10T02:06:05.079Z,1095.00
2023-05-10T02:07:05.105Z,1086.00
2023-05-10T02:08:05.146Z,1091.00
2023-05-10T02:09:05.160Z,1094.00
2023-05-10T02:10:05.149Z,1087.00
2023-05-10T02:11:05.230Z,1100.00
2023-05-10T02:12:05.190Z,1101.00
2023-05-10T02:13:05.269Z,1091.00
2023-05-10T02:14:05.242Z,1082.00
2023-05-10T02:15:05.286Z,1091.00
2023-05-10T02:16:05.433Z,1087.00
2023-05-10T02:17:05.435Z,1093.00
2023-05-10T02:18:05.433Z,1086.00
2023-05-10T02:19:05.410Z,1106.00
2023-05-10T02:20:05.388Z,1085.00
2023-05-10T02:21:05.428Z,1096.00
2023-05-10T02:22:05.463Z,1093.00
2023-05-10T02:23:05.492Z,1096.00
2023-05-10T02:24:05.480Z,1100.00
2023-05-10T02:25:05.524Z,1094.00
2023-05-10T02:26:05.541Z,1092.00
2023-05-10T02:27:05.509Z,1099.00
2023-05-10T02:28:05.509Z,1093.00
2023-05-10T02:29:05.547Z,1089.00
2023-05-10T02:30:05.566Z,1104.00
2023-05-10T02:31:05.598Z,1085.00
2023-05-10T02:32:05.619Z,1103.00
2023-05-10T02:33:05.647Z,1110.00
2023-05-10T02:34:05.609Z,1110.00
2023-05-10T02:35:05.723Z,1110.00
2023-05-10T02:36:05.721Z,1116.00
2023-05-10T02:37:05.681Z,1117.00
2023-05-10T02:38:05.737Z,1111.00
2023-05-10T02:39:05.724Z,1108.00
2023-05-10T02:40:05.728Z,1111.00
2023-05-10T02:41:05.747Z,1099.00
2023-05-10T02:42:05.750Z,1100.00
2023-05-10T02:43:05.785Z,1110.00
2023-05-10T02:44:05.832Z,1110.00
2023-05-10T02:45:05.838Z,1112.00
2023-05-10T02:46:05.891Z,1112.00
2023-05-10T02:47:05.899Z,1109.00
2023-05-10T02:48:05.902Z,1105.00
2023-05-10T02:49:05.858Z,1117.00
2023-05-10T02:50:05.867Z,1104.00
2023-05-10T02:51:05.960Z,1111.00
2023-05-10T02:52:05.967Z,1114.00
2023-05-10T02:53:05.993Z,1105.00
2023-05-10T02:54:05.957Z,1109.00
2023-05-10T02:55:06.006Z,1118.00
2023-05-10T02:56:06.010Z,1111.00
2023-05-10T02:57:06.062Z,1113.00
2023-05-10T02:58:06.111Z,1115.00
2023-05-10T02:59:06.094Z,1103.00
2023-05-10T03:00:06.145Z,1110.00
2023-05-10T03:01:06.179Z,1119.00
2023-05-10T03:02:06.189Z,1119.00
2023-05-10T03:03:06.286Z,1118.00
2023-05-10T03:04:06.289Z,1121.00
2023-05-10T03:05:06.238Z,1120.00
2023-05-10T03:06:06.279Z,1122.00
2023-05-10T03:07:06.340Z,1114.00
2023-05-10T03:08:06.345Z,1118.00
2023-05-10T03:09:06.354Z,1119.00
2023-05-10T03:10:06.398Z,1126.00
2023-05-10T03:11:06.388Z,1109.00
2023-05-10T03:12:06.402Z,1124.00
2023-05-10T03:13:06.461Z,1114.00
2023-05-10T03:14:06.480Z,1126.00
2023-05-10T03:15:06.461Z,1129.00
2023-05-10T03:16:06.510Z,1120.00
2023-05-10T03:17:06.497Z,1115.00
2023-05-10T03:18:06.656Z,1126.00
2023-05-10T03:19:06.553Z,1103.00
2023-05-10T03:20:06.560Z,1116.00
2023-05-10T03:21:06.579Z,1108.00
2023-05-10T03:22:06.617Z,1109.00
2023-05-10T03:23:06.649Z,1120.00
2023-05-10T03:24:06.631Z,1112.00
2023-05-10T03:25:06.692Z,1119.00
2023-05-10T03:26:06.675Z,1123.00
2023-05-10T03:27:06.732Z,1131.00
2023-05-10T03:28:06.738Z,1130.00
2023-05-10T03:29:06.752Z,1130.00
2023-05-10T03:30:06.820Z,1138.00
2023-05-10T03:31:06.833Z,1116.00
2023-05-10T03:32:06.818Z,1131.00
2023-05-10T03:33:06.982Z,1132.00
2023-05-10T03:34:06.886Z,1124.00
2023-05-10T03:35:06.903Z,1124.00
2023-05-10T03:36:06.941Z,1133.00
2023-05-10T03:37:06.948Z,1129.00
2023-05-10T03:38:06.966Z,1121.00
2023-05-10T03:39:07.035Z,1139.00
2023-05-10T03:40:07.003Z,1123.00
2023-05-10T03:41:07.089Z,1119.00
2023-05-10T03:42:07.091Z,1135.00
2023-05-10T03:43:07.099Z,1116.00
2023-05-10T03:44:07.132Z,1118.00
2023-05-10T03:45:07.159Z,1121.00
2023-05-10T03:46:07.252Z,1118.00
2023-05-10T03:47:07.339Z,1123.00
2023-05-10T03:48:07.327Z,1126.00
2023-05-10T03:49:07.253Z,1135.00
2023-05-10T03:50:07.293Z,1138.00
2023-05-10T03:51:07.356Z,1125.00
2023-05-10T03:52:07.356Z,1145.00
2023-05-10T03:53:07.367Z,1133.00
2023-05-10T03:54:07.386Z,1138.00
2023-05-10T03:55:07.428Z,1136.00
2023-05-10T03:56:07.442Z,1126.00
2023-05-10T03:57:07.455Z,1131.00
2023-05-10T03:58:07.496Z,1148.00
2023-05-10T03:59:07.556Z,1154.00
2023-05-10T04:00:07.552Z,1136.00
2023-05-10T04:01:07.602Z,1146.00
2023-05-10T04:02:07.778Z,1139.00
2023-05-10T04:03:07.697Z,1123.00
2023-05-10T04:04:07.844Z,1117.00
2023-05-10T04:05:07.754Z,1103.00
2023-05-10T04:06:07.772Z,1081.00
2023-05-10T04:07:07.798Z,1055.00
2023-05-10T04:08:07.874Z,1054.00
2023-05-10T04:09:07.888Z,1032.00
2023-05-10T04:10:07.937Z,1009.00
2023-05-10T04:11:07.995Z,995.00
2023-05-10T04:12:10.750Z,979.00
2023-05-10T04:13:08.077Z,963.00
2023-05-10T04:14:08.125Z,953.00
2023-05-10T04:15:08.045Z,935.00
2023-05-10T04:16:08.028Z,912.00
2023-05-10T04:17:08.132Z,914.00
2023-05-10T04:18:08.964Z,897.00
2023-05-10T04:19:08.016Z,890.00
2023-05-10T04:20:08.025Z,880.00
2023-05-10T04:21:08.006Z,856.00
2023-05-10T04:22:07.970Z,864.00
2023-05-10T04:23:07.981Z,842.00
2023-05-10T04:24:07.959Z,840.00
2023-05-10T04:25:08.010Z,833.00
2023-05-10T04:26:07.953Z,818.00
2023-05-10T04:27:07.953Z,805.00
2023-05-10T04:28:07.938Z,806.00
2023-05-10T04:29:07.982Z,797.00
2023-05-10T04:30:07.952Z,757.00
2023-05-10T04:31:08.023Z,763.00
2023-05-10T04:32:07.936Z,744.00
2023-05-10T04:33:08.067Z,741.00
2023-05-10T04:34:07.885Z,727.00
2023-05-10T04:35:07.877Z,728.00
2023-05-10T04:36:07.897Z,724.00
2023-05-10T04:37:07.874Z,730.00
2023-05-10T04:38:07.877Z,728.00
2023-05-10T04:39:07.880Z,737.00
2023-05-10T04:40:07.889Z,737.00
2023-05-10T04:41:07.918Z,738.00
2023-05-10T04:42:07.823Z,734.00
2023-05-10T04:43:07.832Z,740.00
2023-05-10T04:44:07.809Z,732.00
2023-05-10T04:45:07.810Z,729.00
2023-05-10T04:46:07.853Z,732.00
2023-05-10T04:47:08.505Z,737.00
2023-05-10T04:48:07.853Z,725.00
2023-05-10T04:49:07.770Z,742.00
2023-05-10T04:50:07.799Z,736.00
2023-05-10T04:51:07.800Z,738.00
2023-05-10T04:52:07.750Z,764.00
2023-05-10T04:53:07.768Z,736.00
2023-05-10T04:54:07.741Z,743.00
2023-05-10T04:55:07.786Z,745.00
2023-05-10T04:56:07.829Z,735.00
2023-05-10T04:57:07.920Z,746.00
2023-05-10T04:58:07.903Z,743.00
2023-05-10T04:59:07.985Z,758.00
2023-05-10T05:00:08.021Z,763.00
2023-05-10T05:01:08.060Z,738.00
2023-05-10T05:02:08.170Z,652.00
2023-05-10T05:03:08.238Z,621.00
2023-05-10T05:04:08.216Z,609.00
2023-05-10T05:05:08.160Z,598.00
2023-05-10T05:06:08.183Z,589.00
2023-05-10T05:07:08.168Z,606.00
2023-05-10T05:08:08.185Z,615.00
2023-05-10T05:09:08.179Z,612.00
2023-05-10T05:10:08.172Z,611.00
2023-05-10T05:11:08.165Z,613.00
2023-05-10T05:12:08.136Z,616.00
2023-05-10T05:13:08.275Z,623.00
2023-05-10T05:14:08.182Z,635.00
2023-05-10T05:15:09.787Z,645.00
2023-05-10T05:16:08.246Z,634.00
2023-05-10T05:17:08.148Z,633.00
2023-05-10T05:18:08.229Z,636.00
2023-05-10T05:19:08.158Z,634.00
2023-05-10T05:20:08.199Z,638.00
2023-05-10T05:21:08.164Z,639.00
2023-05-10T05:22:08.173Z,645.00
2023-05-10T05:23:08.195Z,643.00
2023-05-10T05:24:08.202Z,636.00
2023-05-10T05:25:08.199Z,632.00
2023-05-10T05:26:08.197Z,630.00
2023-05-10T05:27:08.204Z,626.00
2023-05-10T05:28:08.171Z,620.00
2023-05-10T05:29:08.243Z,604.00
2023-05-10T05:30:08.248Z,597.00
2023-05-10T05:31:08.279Z,598.00
2023-05-10T05:32:08.467Z,587.00
2023-05-10T05:33:08.315Z,602.00
2023-05-10T05:34:08.272Z,621.00
2023-05-10T05:35:08.235Z,608.00
2023-05-10T05:36:08.264Z,613.00
2023-05-10T05:37:08.298Z,570.00
2023-05-10T05:38:09.105Z,527.00
2023-05-10T05:39:08.240Z,538.00
2023-05-10T05:40:08.311Z,546.00
2023-05-10T05:41:08.318Z,584.00
2023-05-10T05:42:08.307Z,599.00
2023-05-10T05:43:08.343Z,569.00
2023-05-10T05:44:08.328Z,589.00
2023-05-10T05:45:08.350Z,575.00
2023-05-10T05:46:08.407Z,597.00
2023-05-10T05:47:08.363Z,610.00
2023-05-10T05:48:08.406Z,627.00
2023-05-10T05:49:08.446Z,635.00
2023-05-10T05:50:08.378Z,645.00
2023-05-10T05:51:08.494Z,651.00
2023-05-10T05:52:08.432Z,662.00
2023-05-10T05:53:08.522Z,672.00
2023-05-10T05:54:08.595Z,691.00
2023-05-10T05:55:08.623Z,704.00
2023-05-10T05:56:08.632Z,722.00
2023-05-10T05:57:08.672Z,734.00
2023-05-10T05:58:08.730Z,727.00
2023-05-10T05:59:08.801Z,727.00
2023-05-10T06:00:08.827Z,729.00
2023-05-10T06:01:08.807Z,730.00
2023-05-10T06:02:08.843Z,753.00
2023-05-10T06:03:08.984Z,773.00
2023-05-10T06:04:08.936Z,783.00
2023-05-10T06:05:09.397Z,790.00
2023-05-10T06:06:08.952Z,819.00
2023-05-10T06:07:08.958Z,840.00
2023-05-10T06:08:08.898Z,851.00
2023-05-10T06:09:08.918Z,874.00
2023-05-10T06:10:08.930Z,886.00
2023-05-10T06:11:09.431Z,893.00
2023-05-10T06:12:08.880Z,927.00
2023-05-10T06:13:09.977Z,927.00
2023-05-10T06:14:09.010Z,934.00
2023-05-10T06:15:08.907Z,941.00
2023-05-10T06:16:08.965Z,975.00
2023-05-10T06:17:08.987Z,1008.00
2023-05-10T06:18:09.055Z,1011.00
2023-05-10T06:19:08.985Z,1025.00
2023-05-10T06:20:09.015Z,999.00
2023-05-10T06:21:09.050Z,1027.00
2023-05-10T06:22:09.050Z,1046.00
2023-05-10T06:23:09.102Z,1072.00
2023-05-10T06:24:09.173Z,1108.00
2023-05-10T06:25:09.186Z,1121.00
2023-05-10T06:26:09.321Z,1123.00
2023-05-10T06:27:09.339Z,1144.00
2023-05-10T06:28:10.121Z,1153.00
2023-05-10T06:29:09.455Z,1161.00
2023-05-10T06:30:13.402Z,1183.00
2023-05-10T06:31:09.530Z,1183.00
2023-05-10T06:32:09.538Z,1187.00
2023-05-10T06:33:09.623Z,1200.00
2023-05-10T06:34:09.493Z,1224.00
2023-05-10T06:35:09.470Z,1317.00
2023-05-10T06:36:09.514Z,1430.00
2023-05-10T06:37:09.445Z,1382.00
2023-05-10T06:38:09.517Z,1189.00
2023-05-10T06:39:09.451Z,1188.00
2023-05-10T06:40:09.448Z,1111.00
2023-05-10T06:41:09.447Z,952.00
2023-05-10T06:42:09.386Z,988.00
2023-05-10T06:43:09.410Z,899.00
2023-05-10T06:44:09.872Z,728.00
2023-05-10T06:45:09.411Z,683.00
2023-05-10T06:46:09.430Z,703.00
2023-05-10T06:47:09.370Z,711.00
2023-05-10T06:48:09.431Z,724.00
2023-05-10T06:49:09.395Z,764.00
2023-05-10T06:50:09.498Z,733.00
2023-05-10T06:51:09.361Z,815.00
2023-05-10T06:52:09.384Z,905.00
2023-05-10T06:53:09.398Z,959.00
2023-05-10T06:54:09.316Z,969.00
2023-05-10T06:55:09.475Z,999.00
2023-05-10T06:56:09.372Z,1019.00
2023-05-10T06:57:23.370Z,1032.00
2023-05-10T06:58:10.329Z,1034.00
2023-05-10T06:59:09.331Z,1034.00
2023-05-10T07:00:09.503Z,1033.00
2023-05-10T07:01:09.571Z,1037.00
2023-05-10T07:02:09.344Z,1064.00
2023-05-10T07:03:09.318Z,1066.00
2023-05-10T07:04:09.298Z,1090.00
2023-05-10T07:05:09.315Z,1100.00
2023-05-10T07:06:13.232Z,1093.00
2023-05-10T07:07:09.278Z,1093.00
2023-05-10T07:08:09.255Z,1094.00
2023-05-10T07:09:09.437Z,1096.00
2023-05-10T07:10:09.247Z,1001.00
2023-05-10T07:11:09.247Z,970.00
2023-05-10T07:12:11.103Z,979.00
2023-05-10T07:13:09.303Z,980.00
2023-05-10T07:14:09.202Z,986.00
2023-05-10T07:15:09.449Z,1003.00
2023-05-10T07:16:09.268Z,1021.00
2023-05-10T07:17:09.268Z,1042.00
2023-05-10T07:18:09.253Z,1051.00
2023-05-10T07:19:09.216Z,1071.00
2023-05-10T07:20:09.199Z,1061.00
2023-05-10T07:21:09.241Z,1072.00
2023-05-10T07:22:09.150Z,1073.00
2023-05-10T07:23:09.170Z,1074.00
2023-05-10T07:24:09.162Z,1061.00
2023-05-10T07:25:09.128Z,1081.00
2023-05-10T07:26:09.140Z,1013.00
2023-05-10T07:27:09.324Z,1024.00
2023-05-10T07:28:09.151Z,972.00
2023-05-10T07:29:09.264Z,1039.00
2023-05-10T07:30:09.102Z,988.00
2023-05-10T07:31:09.496Z,942.00
2023-05-10T07:32:09.171Z,937.00
2023-05-10T07:33:09.090Z,954.00
2023-05-10T07:34:09.099Z,975.00
2023-05-10T07:35:09.094Z,951.00
2023-05-10T07:36:09.438Z,941.00
2023-05-10T07:37:09.073Z,988.00
2023-05-10T07:38:09.055Z,1023.00
2023-05-10T07:39:09.067Z,1003.00
2023-05-10T07:40:09.064Z,1035.00
2023-05-10T07:41:08.992Z,1040.00
2023-05-10T07:42:08.989Z,973.00
2023-05-10T07:43:08.994Z,998.00
2023-05-10T07:44:08.991Z,932.00
2023-05-10T07:45:09.021Z,891.00
2023-05-10T07:46:09.142Z,865.00
2023-05-10T07:47:08.984Z,905.00
2023-05-10T07:48:08.985Z,970.00
2023-05-10T07:49:08.996Z,984.00
2023-05-10T07:50:09.032Z,980.00
2023-05-10T07:51:08.931Z,936.00
2023-05-10T07:52:08.940Z,936.00
2023-05-10T07:53:08.952Z,913.00
2023-05-10T07:54:08.931Z,922.00
2023-05-10T07:55:08.925Z,958.00
2023-05-10T07:56:08.929Z,979.00
2023-05-10T07:57:08.933Z,991.00
2023-05-10T07:58:08.894Z,1000.00
2023-05-10T07:59:10.695Z,1022.00
2023-05-10T08:00:08.895Z,1031.00
2023-05-10T08:01:08.929Z,1053.00
2023-05-10T08:02:08.883Z,1060.00
2023-05-10T08:03:08.986Z,1067.00
2023-05-10T08:04:08.941Z,1063.00
2023-05-10T08:05:08.913Z,1064.00
2023-05-10T08:06:08.831Z,1059.00
2023-05-10T08:07:08.830Z,1087.00
2023-05-10T08:08:08.838Z,1089.00
2023-05-10T08:09:08.806Z,1099.00
2023-05-10T08:10:08.817Z,1124.00
2023-05-10T08:11:08.783Z,1139.00
2023-05-10T08:12:08.830Z,1133.00
2023-05-10T08:13:08.802Z,1122.00
2023-05-10T08:14:08.790Z,1097.00
2023-05-10T08:15:08.808Z,1110.00
2023-05-10T08:16:08.853Z,1096.00
2023-05-10T08:17:08.776Z,1077.00
2023-05-10T08:18:08.954Z,1096.00
2023-05-10T08:19:08.757Z,1112.00
2023-05-10T08:20:08.728Z,1112.00
2023-05-10T08:21:08.720Z,992.00
2023-05-10T08:22:08.747Z,829.00
2023-05-10T08:23:08.741Z,692.00
2023-05-10T08:24:08.770Z,721.00
2023-05-10T08:25:08.770Z,810.00
2023-05-10T08:26:08.705Z,847.00
2023-05-10T08:27:08.727Z,878.00
2023-05-10T08:28:09.971Z,893.00
2023-05-10T08:29:08.883Z,892.00
2023-05-10T08:30:08.946Z,855.00
2023-05-10T08:31:08.937Z,869.00
2023-05-10T08:32:08.902Z,811.00
2023-05-10T08:33:09.047Z,781.00
2023-05-10T08:34:08.931Z,708.00
2023-05-10T08:35:08.998Z,732.00
2023-05-10T08:36:08.946Z,738.00
2023-05-10T08:37:09.006Z,701.00
2023-05-10T08:38:09.045Z,691.00
2023-05-10T08:39:16.256Z,661.00
2023-05-10T08:40:10.102Z,662.00
2023-05-10T08:41:09.085Z,662.00
2023-05-10T08:42:09.024Z,658.00
2023-05-10T08:43:09.031Z,663.00
2023-05-10T08:44:09.058Z,704.00
2023-05-10T08:45:09.231Z,715.00
2023-05-10T08:46:09.046Z,729.00
2023-05-10T08:47:09.151Z,767.00
2023-05-10T08:48:09.027Z,780.00
2023-05-10T08:49:09.004Z,792.00
2023-05-10T08:50:08.988Z,815.00
2023-05-10T08:51:09.450Z,818.00
2023-05-10T08:52:09.000Z,840.00
2023-05-10T08:53:08.964Z,849.00
2023-05-10T08:54:08.968Z,858.00
2023-05-10T08:55:08.984Z,848.00
2023-05-10T08:56:08.962Z,877.00
2023-05-10T08:57:08.998Z,902.00
2023-05-10T08:58:08.985Z,919.00
2023-05-10T08:59:09.058Z,964.00
2023-05-10T09:00:09.173Z,970.00
2023-05-10T09:01:09.165Z,948.00
2023-05-10T09:02:09.113Z,945.00
2023-05-10T09:03:09.205Z,953.00
2023-05-10T09:04:09.286Z,970.00
2023-05-10T09:05:09.281Z,945.00
2023-05-10T09:06:09.261Z,969.00
2023-05-10T09:07:09.244Z,984.00
2023-05-10T09:08:09.260Z,998.00
2023-05-10T09:09:09.865Z,1025.00
2023-05-10T09:10:09.272Z,1006.00
2023-05-10T09:11:09.334Z,1013.00
2023-05-10T09:12:09.300Z,1025.00
2023-05-10T09:13:09.295Z,1057.00
2023-05-10T09:14:09.426Z,1058.00
2023-05-10T09:15:09.336Z,1044.00
2023-05-10T09:16:20.506Z,1066.00
2023-05-10T09:17:10.381Z,1067.00
2023-05-10T09:18:09.389Z,1069.00
2023-05-10T09:19:09.402Z,1072.00
2023-05-10T09:20:09.301Z,1085.00
2023-05-10T09:21:09.309Z,1095.00
2023-05-10T09:22:09.314Z,1104.00
2023-05-10T09:23:09.289Z,1118.00
2023-05-10T09:24:09.260Z,1100.00
2023-05-10T09:25:09.302Z,1098.00
2023-05-10T09:26:09.245Z,1098.00
2023-05-10T09:27:09.252Z,1110.00
2023-05-10T09:28:09.292Z,1092.00
2023-05-10T09:29:09.271Z,1106.00
2023-05-10T09:30:09.234Z,1106.00
2023-05-10T09:31:09.261Z,1088.00
2023-05-10T09:32:09.230Z,1086.00
2023-05-10T09:33:09.178Z,1099.00
2023-05-10T09:34:09.206Z,1110.00
2023-05-10T09:35:09.418Z,1106.00
2023-05-10T09:36:09.152Z,1135.00
2023-05-10T09:37:09.210Z,1139.00
2023-05-10T09:38:09.161Z,1139.00
2023-05-10T09:39:09.155Z,1157.00
2023-05-10T09:40:09.128Z,1169.00
2023-05-10T09:41:09.139Z,1202.00
2023-05-10T09:42:09.138Z,1158.00
2023-05-10T09:43:09.181Z,1166.00
2023-05-10T09:44:09.163Z,1180.00
2023-05-10T09:45:09.102Z,1207.00
2023-05-10T09:46:09.238Z,1223.00
2023-05-10T09:47:09.328Z,1234.00
2023-05-10T09:48:09.232Z,1213.00
2023-05-10T09:49:09.258Z,1250.00
2023-05-10T09:50:09.345Z,1263.00
2023-05-10T09:51:09.358Z,1208.00
2023-05-10T09:52:09.455Z,1198.00
2023-05-10T09:53:09.461Z,1225.00
2023-05-10T09:54:09.638Z,1211.00
2023-05-10T09:55:09.583Z,1187.00
2023-05-10T09:56:09.678Z,1166.00
2023-05-10T09:57:09.714Z,1150.00
2023-05-10T09:58:09.812Z,1171.00
2023-05-10T09:59:09.836Z,1084.00
2023-05-10T10:00:09.822Z,1022.00
2023-05-10T10:01:09.822Z,821.00
2023-05-10T10:02:09.822Z,658.00
2023-05-10T10:03:09.856Z,595.00
2023-05-10T10:04:09.815Z,593.00
2023-05-10T10:05:09.934Z,563.00
2023-05-10T10:06:15.962Z,544.00
2023-05-10T10:07:10.859Z,519.00
2023-05-10T10:08:09.991Z,496.00
2023-05-10T10:09:09.866Z,494.00
2023-05-10T10:10:09.822Z,483.00
2023-05-10T10:11:09.868Z,461.00
2023-05-10T10:12:09.794Z,499.00
2023-05-10T10:13:09.955Z,506.00
2023-05-10T10:14:09.973Z,516.00
2023-05-10T10:15:09.987Z,564.00
2023-05-10T10:16:09.851Z,500.00
2023-05-10T10:17:09.925Z,507.00
2023-05-10T10:18:09.805Z,501.00
2023-05-10T10:19:09.920Z,511.00
2023-05-10T10:20:11.883Z,515.00
2023-05-10T10:21:09.869Z,504.00
2023-05-10T10:22:10.004Z,498.00
2023-05-10T10:23:09.917Z,526.00
2023-05-10T10:24:09.887Z,559.00
2023-05-10T10:25:09.908Z,544.00
2023-05-10T10:26:09.894Z,500.00
2023-05-10T10:27:10.009Z,530.00
2023-05-10T10:28:09.901Z,510.00
2023-05-10T10:29:09.923Z,487.00
2023-05-10T10:30:10.041Z,472.00
2023-05-10T10:31:10.033Z,500.00
2023-05-10T10:32:10.059Z,480.00
2023-05-10T10:33:16.879Z,597.00
2023-05-10T10:34:11.052Z,600.00
2023-05-10T10:35:10.554Z,617.00
2023-05-10T10:36:10.036Z,651.00
2023-05-10T10:37:10.063Z,764.00
2023-05-10T10:38:10.073Z,870.00
2023-05-10T10:39:09.991Z,908.00
2023-05-10T10:40:10.013Z,849.00
2023-05-10T10:41:10.060Z,775.00
2023-05-10T10:42:09.997Z,808.00
2023-05-10T10:43:10.091Z,695.00
2023-05-10T10:44:09.980Z,649.00
2023-05-10T10:45:09.997Z,848.00
2023-05-10T10:46:09.995Z,1023.00
2023-05-10T10:47:10.057Z,1080.00
2023-05-10T10:48:09.972Z,1096.00
2023-05-10T10:49:09.958Z,1093.00
2023-05-10T10:50:09.930Z,1122.00
2023-05-10T10:51:12.201Z,1138.00
2023-05-10T10:52:09.940Z,1140.00
2023-05-10T10:53:09.993Z,1166.00
2023-05-10T10:54:09.977Z,1171.00
2023-05-10T10:55:10.002Z,1152.00
2023-05-10T10:56:09.901Z,1174.00
2023-05-10T10:57:09.955Z,1181.00
2023-05-10T10:58:09.922Z,1157.00
2023-05-10T10:59:09.898Z,1164.00
2023-05-10T11:00:09.934Z,1183.00
2023-05-10T11:01:09.937Z,1219.00
2023-05-10T11:02:09.913Z,1183.00
2023-05-10T11:03:09.994Z,1209.00
2023-05-10T11:04:09.921Z,1225.00
2023-05-10T11:05:09.897Z,1244.00
2023-05-10T11:06:09.869Z,1235.00
2023-05-10T11:07:09.827Z,1263.00
2023-05-10T11:08:09.795Z,1260.00
2023-05-10T11:09:09.848Z,1262.00
2023-05-10T11:10:10.484Z,1238.00
2023-05-10T11:11:09.890Z,1236.00
2023-05-10T11:12:09.792Z,1209.00
2023-05-10T11:13:09.838Z,1217.00
2023-05-10T11:14:09.832Z,1238.00
2023-05-10T11:15:09.792Z,1247.00
2023-05-10T11:16:09.816Z,1255.00
2023-05-10T11:17:09.863Z,1270.00
2023-05-10T11:18:09.749Z,1006.00
2023-05-10T11:19:09.982Z,680.00
2023-05-10T11:20:09.759Z,649.00
2023-05-10T11:21:09.727Z,645.00
2023-05-10T11:22:09.720Z,682.00
2023-05-10T11:23:09.752Z,667.00
2023-05-10T11:24:09.719Z,614.00
2023-05-10T11:25:09.692Z,605.00
2023-05-10T11:26:10.490Z,562.00
2023-05-10T11:27:09.722Z,532.00
2023-05-10T11:28:09.902Z,501.00
2023-05-10T11:29:09.692Z,457.00
2023-05-10T11:30:09.682Z,490.00
2023-05-10T11:31:09.680Z,504.00
2023-05-10T11:32:09.649Z,500.00
2023-05-10T11:33:09.764Z,506.00
2023-05-10T11:34:09.653Z,522.00
2023-05-10T11:35:09.648Z,567.00
2023-05-10T11:36:09.722Z,570.00
2023-05-10T11:37:09.633Z,608.00
2023-05-10T11:38:09.661Z,577.00
2023-05-10T11:39:09.644Z,533.00
2023-05-10T11:40:09.649Z,543.00
2023-05-10T11:41:09.600Z,496.00
2023-05-10T11:42:09.602Z,500.00
2023-05-10T11:43:09.604Z,524.00
2023-05-10T11:44:09.595Z,527.00
2023-05-10T11:45:09.630Z,527.00
2023-05-10T11:46:09.550Z,522.00
2023-05-10T11:47:09.620Z,469.00
2023-05-10T11:48:09.626Z,486.00
2023-05-10T11:49:09.541Z,489.00
2023-05-10T11:50:09.549Z,503.00
2023-05-10T11:51:09.518Z,504.00
2023-05-10T11:52:09.532Z,503.00
2023-05-10T11:53:09.547Z,534.00
2023-05-10T11:54:09.538Z,557.00
2023-05-10T11:55:09.542Z,537.00
2023-05-10T11:56:09.483Z,524.00
2023-05-10T11:57:09.518Z,500.00
2023-05-10T11:58:09.461Z,498.00
2023-05-10T11:59:09.533Z,502.00
2023-05-10T12:00:09.522Z,525.00
2023-05-10T12:01:09.476Z,516.00
2023-05-10T12:02:09.537Z,535.00
2023-05-10T12:03:09.571Z,612.00
2023-05-10T12:04:09.757Z,674.00
2023-05-10T12:05:09.529Z,814.00
2023-05-10T12:06:09.525Z,929.00
2023-05-10T12:07:09.569Z,1055.00
2023-05-10T12:08:09.620Z,1188.00
2023-05-10T12:09:09.654Z,1227.00
2023-05-10T12:10:10.304Z,1274.00
2023-05-10T12:11:09.791Z,1439.00
2023-05-10T12:12:09.714Z,1340.00
2023-05-10T12:13:10.019Z,1412.00
2023-05-10T12:14:09.827Z,1427.00
2023-05-10T12:15:09.889Z,1392.00